createdAt,value
2022-12-08T00:03:41.859Z,0.10
2022-12-08T00:09:02.935Z,-0.10
2022-12-08T00:14:06.771Z,-0.40
2022-12-08T00:19:09.353Z,-0.70
2022-12-08T00:24:12.013Z,-1.00
2022-12-08T00:29:17.496Z,-1.10
2022-12-08T00:34:20.796Z,-1.10
2022-12-08T00:39:23.294Z,-1.30
2022-12-08T00:44:26.012Z,-1.40
2022-12-08T00:54:31.585Z,-1.20
2022-12-08T00:59:34.107Z,-1.20
2022-12-08T01:09:39.485Z,-1.20
2022-12-08T01:14:42.065Z,-1.30
2022-12-08T01:19:44.616Z,-1.10
2022-12-08T01:24:47.182Z,-1.10
2022-12-08T01:29:49.986Z,-1.30
2022-12-08T01:34:52.649Z,-1.20
2022-12-08T01:39:55.228Z,-1.20
2022-12-08T01:45:03.006Z,-1.40
2022-12-08T01:50:08.576Z,-1.30
2022-12-08T01:55:20.131Z,-1.20
2022-12-08T02:00:23.986Z,-1.20
2022-12-08T02:05:30.313Z,-1.20
2022-12-08T02:10:39.662Z,-1.00
2022-12-08T02:16:02.786Z,-1.00
2022-12-08T02:21:18.614Z,-0.90
2022-12-08T02:26:39.405Z,-0.90
2022-12-08T02:32:10.945Z,-0.90
2022-12-08T02:42:42.199Z,-1.00
2022-12-08T02:47:45.363Z,-1.00
2022-12-08T02:52:48.808Z,-1.10
2022-12-08T02:58:09.910Z,-1.00
2022-12-08T03:08:25.085Z,-1.00
2022-12-08T03:13:35.862Z,-1.00
2022-12-08T03:18:44.147Z,-1.20
2022-12-08T03:23:49.719Z,-1.20
2022-12-08T03:28:52.688Z,-1.10
2022-12-08T03:33:58.621Z,-1.10
2022-12-08T03:39:01.479Z,-1.10
2022-12-08T03:44:04.269Z,-1.00
2022-12-08T03:49:06.828Z,-1.00
2022-12-08T03:54:09.585Z,-0.80
2022-12-08T04:04:15.094Z,-0.80
2022-12-08T04:09:17.985Z,-0.60
2022-12-08T04:14:20.489Z,-0.70
2022-12-08T04:24:25.817Z,-0.80
2022-12-08T04:34:31.300Z,-1.10
2022-12-08T04:39:33.775Z,-1.20
2022-12-08T04:44:36.326Z,-1.30
2022-12-08T04:49:38.775Z,-1.40
2022-12-08T04:54:41.193Z,-1.60
2022-12-08T04:59:43.692Z,-1.80
2022-12-08T05:04:46.281Z,-1.80
2022-12-08T05:09:48.814Z,-1.90
2022-12-08T05:14:51.355Z,-2.00
2022-12-08T05:19:53.937Z,-2.10
2022-12-08T05:24:56.535Z,-2.40
2022-12-08T05:29:59.114Z,-2.40
2022-12-08T05:35:01.667Z,-2.60
2022-12-08T05:40:05.029Z,-2.80
2022-12-08T05:50:11.108Z,-3.20
2022-12-08T05:55:13.624Z,-3.20
2022-12-08T06:00:16.645Z,-3.60
2022-12-08T06:05:19.123Z,-3.90
2022-12-08T06:15:24.521Z,-3.90
2022-12-08T06:25:29.874Z,-3.90
2022-12-08T06:30:33.494Z,-3.60
2022-12-08T06:35:37.054Z,-3.10
2022-12-08T06:50:46.324Z,-1.90
2022-12-08T06:56:00.242Z,-1.70
2022-12-08T07:01:11.591Z,-1.90
2022-12-08T07:06:16.980Z,-1.50
2022-12-08T07:11:21.986Z,-1.40
2022-12-08T07:16:25.269Z,-1.50
2022-12-08T07:31:33.628Z,-0.70
2022-12-08T07:36:36.485Z,-0.30
2022-12-08T07:41:38.952Z,-0.40
2022-12-08T07:46:41.721Z,0.20
2022-12-08T07:51:44.398Z,0.10
2022-12-08T07:56:46.920Z,0.60
2022-12-08T08:02:11.713Z,0.60
2022-12-08T08:07:13.725Z,0.60
2022-12-08T08:12:31.231Z,0.80
2022-12-08T08:17:38.962Z,0.70
2022-12-08T08:22:41.561Z,0.60
2022-12-08T08:27:44.556Z,0.60
2022-12-08T08:32:47.279Z,0.70
2022-12-08T08:37:50.045Z,0.70
2022-12-08T08:42:52.533Z,0.90
2022-12-08T08:47:55.065Z,1.10
2022-12-08T08:52:57.489Z,1.30
2022-12-08T08:58:00.148Z,1.40
2022-12-08T09:03:02.609Z,1.50
2022-12-08T09:08:05.200Z,1.90
2022-12-08T09:13:07.628Z,2.30
2022-12-08T09:18:10.240Z,2.30
2022-12-08T09:23:12.709Z,2.30
2022-12-08T09:28:15.442Z,2.10
2022-12-08T09:33:17.993Z,1.70
2022-12-08T09:38:20.532Z,1.70
2022-12-08T09:44:01.878Z,1.70
2022-12-08T09:49:10.140Z,1.80
2022-12-08T09:54:21.580Z,1.90
2022-12-08T09:59:34.478Z,2.10
2022-12-08T10:04:41.085Z,1.90
2022-12-08T10:10:02.047Z,1.80
2022-12-08T10:15:38.436Z,1.70
2022-12-08T10:20:43.086Z,1.80
2022-12-08T10:25:48.838Z,2.00
2022-12-08T10:30:51.358Z,2.20
2022-12-08T10:35:58.355Z,2.20
2022-12-08T10:41:09.544Z,2.00
2022-12-08T10:46:25.607Z,2.00
2022-12-08T10:51:34.180Z,2.00
2022-12-08T10:56:36.941Z,2.30
2022-12-08T11:01:40.896Z,2.60
2022-12-08T11:06:44.605Z,2.80
2022-12-08T11:11:58.979Z,2.90
2022-12-08T11:17:12.370Z,3.20
2022-12-08T11:22:32.236Z,3.10
2022-12-08T11:27:36.941Z,3.20
2022-12-08T11:32:42.758Z,3.20
2022-12-08T11:37:45.357Z,3.30
2022-12-08T11:43:27.819Z,2.80
2022-12-08T11:48:34.588Z,2.70
2022-12-08T11:54:18.750Z,2.40
2022-12-08T11:59:28.546Z,2.50
2022-12-08T12:04:52.671Z,2.50
2022-12-08T12:10:39.049Z,2.40
2022-12-08T12:16:10.881Z,2.50
2022-12-08T12:21:18.427Z,2.70
2022-12-08T12:26:30.651Z,2.70
2022-12-08T12:31:38.272Z,2.70
2022-12-08T12:36:56.253Z,2.70
2022-12-08T12:42:01.283Z,2.80
2022-12-08T12:47:08.513Z,2.90
2022-12-08T12:52:17.014Z,3.00
2022-12-08T12:57:19.546Z,3.00
2022-12-08T13:02:27.546Z,3.10
2022-12-08T13:07:34.412Z,3.10
2022-12-08T13:12:37.273Z,3.60
2022-12-08T13:17:45.678Z,3.10
2022-12-08T13:22:54.054Z,3.10
2022-12-08T13:27:56.636Z,3.20
2022-12-08T13:33:18.148Z,3.20
2022-12-08T13:38:25.445Z,3.10
2022-12-08T13:44:50.454Z,3.00
2022-12-08T13:55:49.513Z,2.50
2022-12-08T14:00:22.012Z,2.50
2022-12-08T14:05:48.021Z,2.40
2022-12-08T14:10:57.357Z,2.30
2022-12-08T14:16:00.259Z,2.20
2022-12-08T14:21:20.697Z,2.20
2022-12-08T14:26:23.771Z,2.20
2022-12-08T14:31:27.959Z,2.20
2022-12-08T14:36:33.314Z,2.10
2022-12-08T14:41:36.201Z,2.00
2022-12-08T14:46:38.940Z,1.90
2022-12-08T14:51:41.679Z,1.80
2022-12-08T14:56:52.203Z,1.70
2022-12-08T15:02:09.170Z,1.60
2022-12-08T15:07:23.087Z,1.30
2022-12-08T15:12:31.830Z,1.00
2022-12-08T15:17:40.475Z,0.80
2022-12-08T15:22:42.976Z,0.50
2022-12-08T15:27:50.426Z,0.20
2022-12-08T15:32:54.335Z,-0.40
2022-12-08T15:37:57.050Z,-0.30
2022-12-08T15:42:59.571Z,0.40
2022-12-08T15:48:02.148Z,2.20
2022-12-08T15:53:04.649Z,1.30
2022-12-08T16:09:06.320Z,1.50
2022-12-08T16:15:22.973Z,1.50
2022-12-08T16:19:36.549Z,1.40
2022-12-08T16:24:39.063Z,1.30
2022-12-08T16:29:47.014Z,1.10
2022-12-08T16:34:51.063Z,1.10
2022-12-08T16:39:57.033Z,1.10
2022-12-08T16:45:02.387Z,1.20
2022-12-08T16:50:07.833Z,1.30
2022-12-08T16:55:19.285Z,1.30
2022-12-08T17:00:25.235Z,1.50
2022-12-08T17:05:27.768Z,1.70
2022-12-08T17:10:32.102Z,1.80
2022-12-08T17:15:34.768Z,1.80
2022-12-08T17:20:38.998Z,1.80
2022-12-08T17:25:41.484Z,1.50
2022-12-08T17:30:44.327Z,1.30
2022-12-08T17:35:50.864Z,1.20
2022-12-08T17:40:58.451Z,1.10
2022-12-08T17:46:01.707Z,1.10
2022-12-08T17:51:08.721Z,1.10
2022-12-08T17:56:29.609Z,0.90
2022-12-08T18:01:34.541Z,0.80
2022-12-08T18:06:38.498Z,0.70
2022-12-08T18:11:43.095Z,0.70
2022-12-08T18:16:47.385Z,0.60
2022-12-08T18:26:53.316Z,0.40
2022-12-08T18:31:56.168Z,0.20
2022-12-08T18:36:58.700Z,0.20
2022-12-08T18:42:21.929Z,0.00
2022-12-08T18:47:24.841Z,0.10
2022-12-08T18:52:32.284Z,0.10
2022-12-08T18:57:38.342Z,0.00
2022-12-08T19:02:41.771Z,0.00
2022-12-08T19:07:45.742Z,0.10
2022-12-08T19:12:52.614Z,0.10
2022-12-08T19:17:55.126Z,0.10
2022-12-08T19:22:57.597Z,0.00
2022-12-08T19:28:00.103Z,0.00
2022-12-08T19:33:02.630Z,-0.20
2022-12-08T19:38:05.328Z,-0.20
2022-12-08T19:43:40.300Z,-0.30
2022-12-08T19:48:43.621Z,-0.60
2022-12-08T19:53:48.032Z,-0.60
2022-12-08T19:58:51.563Z,-0.60
2022-12-08T20:03:54.147Z,-0.90
2022-12-08T20:08:56.679Z,-1.00
2022-12-08T20:13:59.177Z,-0.90
2022-12-08T20:19:02.600Z,-1.30
2022-12-08T20:24:05.297Z,-0.90
2022-12-08T20:29:07.909Z,-1.00
2022-12-08T20:34:18.020Z,-1.30
2022-12-08T20:39:20.617Z,-1.20
2022-12-08T20:44:23.192Z,-1.40
2022-12-08T20:49:29.843Z,-1.40
2022-12-08T20:54:37.646Z,-1.40
2022-12-08T20:59:40.411Z,-1.50
2022-12-08T21:19:52.528Z,-1.40
2022-12-08T21:29:57.961Z,-1.30
2022-12-08T21:35:00.596Z,-1.20
2022-12-08T21:40:05.293Z,-1.20
2022-12-08T21:45:08.677Z,-1.20
2022-12-08T21:50:12.368Z,-1.10
2022-12-08T21:55:17.149Z,-0.90
2022-12-08T22:00:20.355Z,-0.80
2022-12-08T22:05:23.110Z,-0.80
2022-12-08T22:10:25.723Z,-0.60
2022-12-08T22:15:29.868Z,-0.80
2022-12-08T22:20:32.517Z,-1.00
2022-12-08T22:25:35.051Z,-1.00
2022-12-08T22:30:39.507Z,-1.10
2022-12-08T22:35:42.230Z,-1.10
2022-12-08T22:40:44.742Z,-1.10
2022-12-08T22:45:47.589Z,-0.80
2022-12-08T22:50:50.247Z,-0.50
2022-12-08T22:55:52.951Z,-0.30
2022-12-08T23:00:55.428Z,-0.20
2022-12-08T23:05:58.083Z,-0.20
2022-12-08T23:11:00.592Z,-0.30
2022-12-08T23:16:03.204Z,-0.30
2022-12-08T23:21:08.728Z,-0.10
2022-12-08T23:26:20.831Z,0.00
2022-12-08T23:31:24.352Z,0.10
2022-12-08T23:36:27.336Z,0.20
2022-12-08T23:41:30.267Z,0.20
2022-12-08T23:46:32.796Z,0.20
2022-12-08T23:51:35.482Z,0.20
2022-12-08T23:56:38.254Z,0.20
